Terminal Aerodrome Forecast
Issued by NWS

Home | Current Version | Previous Version | Text Only | Print | Product List | Glossary On
Versions: 1 2 3 4 5 6 7 8 9 10 11 12 13 14 15 16
000
FTUS44 KCRP 191122
TAFLRD
TAF
KLRD 191122Z 1912/2012 10005KT P6SM SCT012
     FM191500 17007KT P6SM SCT025 SCT250
     FM191800 33008KT P6SM FEW050 SCT250
     FM192300 04010KT P6SM FEW035=

USA.gov is the U.S. government's official web portal to all federal, state and local government web resources and services.